Time;durP1;ratioP1;P1;durP2;ratioP2;P2;SDS_P1;SDS_P2;PMS_P1;PMS_P2;Temp;Humidity;BMP_temperature;BMP_pressure;BME280_temperature;BME280_humidity;BME280_pressure;Samples;Min_cycle;Max_cycle;Signal;HPM_P1;HPM_P2
2022/11/05 00:10:45;;;;;;;10.13;5.75;;;;;;;8.39;100.00;98473.38;5050426;28;20105;-72
2022/11/05 00:18:40;;;;;;;8.25;4.82;;;;;;;8.34;100.00;98475.81;5042036;28;20389;-71
2022/11/05 00:25:12;;;;;;;8.05;4.57;;;;;;;8.29;100.00;98491.72;5041872;28;20025;-72
2022/11/05 00:26:35;;;;;;;10.13;5.57;;;;;;;8.22;100.00;98488.16;5048198;28;20040;-72
2022/11/05 00:29:00;;;;;;;9.40;5.75;;;;;;;8.28;100.00;98501.69;5052101;28;20040;-72
2022/11/05 00:31:26;;;;;;;9.43;5.50;;;;;;;8.31;100.00;98503.16;5045632;28;20024;-73
2022/11/05 00:33:51;;;;;;;9.70;6.05;;;;;;;8.28;100.00;98504.38;5063611;28;20031;-72
2022/11/05 00:36:17;;;;;;;10.43;5.50;;;;;;;8.28;100.00;98506.25;5044432;28;20139;-72
2022/11/05 00:38:42;;;;;;;10.30;4.55;;;;;;;8.31;100.00;98498.59;5044881;28;20027;-72
2022/11/05 00:41:07;;;;;;;7.55;5.38;;;;;;;8.29;100.00;98507.91;5049337;28;20050;-72
2022/11/05 00:46:16;;;;;;;10.95;4.28;;;;;;;8.24;100.00;98502.25;5046447;28;20537;-72
2022/11/05 00:51:25;;;;;;;9.30;4.03;;;;;;;8.38;100.00;98517.50;5052620;28;20527;-72
2022/11/05 00:53:50;;;;;;;8.15;3.75;;;;;;;8.41;100.00;98510.91;5054121;28;20029;-72
2022/11/05 00:56:16;;;;;;;8.15;3.63;;;;;;;8.39;100.00;98516.50;5046582;28;20051;-72
2022/11/05 00:58:41;;;;;;;5.78;3.28;;;;;;;8.40;100.00;98509.25;5029064;28;20109;-72
2022/11/05 01:01:09;;;;;;;4.18;3.08;;;;;;;8.43;100.00;98527.72;5052507;28;20078;-72
2022/11/05 01:03:37;;;;;;;6.70;3.15;;;;;;;8.38;100.00;98536.38;5060152;28;20023;-72
2022/11/05 01:06:09;;;;;;;8.30;3.35;;;;;;;8.40;100.00;98528.94;5051837;28;20017;-72
2022/11/05 01:08:35;;;;;;;7.47;3.25;;;;;;;8.45;100.00;98531.91;5044123;28;20025;-72
2022/11/05 01:11:10;;;;;;;6.88;3.35;;;;;;;8.47;100.00;98529.84;5046399;28;20070;-73
2022/11/05 01:13:37;;;;;;;5.18;2.83;;;;;;;8.49;100.00;98529.66;5041919;28;20060;-72
2022/11/05 01:16:08;;;;;;;7.70;3.88;;;;;;;8.40;100.00;98526.25;5054028;28;20111;-72
2022/11/05 01:18:36;;;;;;;4.88;3.08;;;;;;;8.50;100.00;98548.31;5054158;28;20075;-73
2022/11/05 01:21:13;;;;;;;7.03;4.00;;;;;;;8.45;100.00;98545.38;5044373;28;20051;-72
2022/11/05 01:23:39;;;;;;;5.20;2.92;;;;;;;8.45;100.00;98542.69;5038762;28;20029;-72
2022/11/05 01:26:04;;;;;;;4.60;3.03;;;;;;;8.43;100.00;98544.72;5047595;28;20402;-72
2022/11/05 01:28:29;;;;;;;8.85;3.15;;;;;;;8.42;100.00;98553.84;5052216;28;20478;-72
2022/11/05 01:30:55;;;;;;;5.05;3.20;;;;;;;8.51;100.00;98546.44;5048212;28;20383;-73
2022/11/05 01:33:21;;;;;;;4.95;3.10;;;;;;;8.37;100.00;98533.88;5039107;28;20029;-72
2022/11/05 01:35:49;;;;;;;6.32;2.97;;;;;;;8.45;100.00;98549.94;5052310;28;20032;-72
2022/11/05 01:38:14;;;;;;;5.22;2.90;;;;;;;8.40;100.00;98552.38;5060208;28;20025;-72
2022/11/05 01:40:41;;;;;;;7.90;3.25;;;;;;;8.29;100.00;98545.63;5050694;28;20389;-73
2022/11/05 01:43:14;;;;;;;4.13;2.72;;;;;;;8.30;100.00;98544.59;5053103;28;20115;-72
2022/11/05 01:45:40;;;;;;;8.52;4.10;;;;;;;8.29;100.00;98554.56;5058314;28;20036;-72
2022/11/05 01:48:14;;;;;;;3.92;2.40;;;;;;;8.42;100.00;98566.50;5069594;28;20031;-72
2022/11/05 01:51:01;;;;;;;6.38;2.60;;;;;;;8.28;100.00;98546.69;5074288;28;20471;-72
2022/11/05 01:53:40;;;;;;;4.13;2.33;;;;;;;8.39;100.00;98558.78;5055469;28;20029;-72
2022/11/05 01:56:16;;;;;;;4.50;2.33;;;;;;;8.47;100.00;98562.19;5056107;28;20025;-71
2022/11/05 01:58:43;;;;;;;6.35;2.92;;;;;;;8.33;100.00;98560.38;5060482;28;20024;-72
2022/11/05 02:01:09;;;;;;;9.70;3.03;;;;;;;8.26;100.00;98560.34;5075835;28;20481;-72
2022/11/05 02:03:34;;;;;;;4.00;2.15;;;;;;;8.31;100.00;98574.06;5068207;28;20081;-72
2022/11/05 02:06:01;;;;;;;5.10;2.42;;;;;;;8.17;100.00;98547.19;5069880;28;20028;-72
2022/11/05 02:09:00;;;;;;;3.90;2.33;;;;;;;8.20;100.00;98565.66;5056415;28;20103;-72
2022/11/05 02:11:26;;;;;;;4.75;2.55;;;;;;;8.30;100.00;98574.25;5049343;28;20041;-72
2022/11/05 02:13:51;;;;;;;4.15;2.40;;;;;;;8.25;100.00;98571.28;5081612;28;20040;-73
2022/11/05 02:16:29;;;;;;;6.10;2.60;;;;;;;8.30;100.00;98593.94;5061707;28;20029;-73
2022/11/05 02:19:15;;;;;;;6.05;2.83;;;;;;;8.28;100.00;98584.41;5047095;28;20021;-72
2022/11/05 02:21:43;;;;;;;5.75;2.70;;;;;;;8.27;100.00;98582.72;5064448;28;20523;-73
2022/11/05 02:24:21;;;;;;;4.80;2.80;;;;;;;8.25;100.00;98563.22;5059994;28;20044;-72
2022/11/05 02:27:05;;;;;;;5.55;3.25;;;;;;;8.22;100.00;98580.59;5063428;28;20037;-73
2022/11/05 02:30:04;;;;;;;8.75;3.10;;;;;;;8.26;100.00;98589.97;5071108;28;20068;-73
2022/11/05 02:32:47;;;;;;;6.32;3.28;;;;;;;8.23;100.00;98584.97;5081078;28;20033;-72
2022/11/05 02:35:50;;;;;;;6.35;3.10;;;;;;;8.33;100.00;98590.03;5078244;28;20052;-71
2022/11/05 02:38:20;;;;;;;8.38;3.30;;;;;;;8.31;100.00;98584.00;5060276;28;20021;-74
2022/11/05 02:40:51;;;;;;;;;;;;;;;8.35;100.00;98591.50;5064712;28;20071;-74
2022/11/05 02:43:32;;;;;;;4.45;2.78;;;;;;;8.33;100.00;98596.28;5068243;28;19912;-72
2022/11/05 02:46:14;;;;;;;8.00;4.15;;;;;;;8.33;100.00;98598.97;5070801;28;20026;-73
2022/11/05 02:48:54;;;;;;;7.20;3.72;;;;;;;8.35;100.00;98602.28;5076301;28;20032;-72
2022/11/05 02:51:26;;;;;;;7.88;3.70;;;;;;;8.29;100.00;98597.69;5081321;28;20060;-72
2022/11/05 02:54:05;;;;;;;7.72;4.15;;;;;;;8.25;100.00;98600.94;5071302;28;20056;-73
2022/11/05 02:56:38;;;;;;;6.30;4.15;;;;;;;8.22;100.00;98586.00;5065349;28;20028;-72
2022/11/05 02:59:03;;;;;;;10.02;4.25;;;;;;;8.22;100.00;98594.06;5082648;28;20088;-73
2022/11/05 03:01:29;;;;;;;6.10;3.67;;;;;;;8.27;100.00;98594.34;5066219;28;20083;-72
2022/11/05 03:03:59;;;;;;;5.53;3.70;;;;;;;8.26;100.00;98581.91;5069396;28;20071;-74
2022/11/05 03:06:25;;;;;;;7.22;4.03;;;;;;;8.37;100.00;98603.97;5050113;28;20020;-72
2022/11/05 03:09:15;;;;;;;6.22;3.88;;;;;;;8.35;100.00;98601.44;5052925;28;20402;-72
2022/11/05 03:11:49;;;;;;;7.85;4.25;;;;;;;8.38;100.00;98598.38;5056956;28;20043;-72
2022/11/05 03:14:29;;;;;;;8.32;4.47;;;;;;;8.38;100.00;98595.66;5048726;28;20037;-72
2022/11/05 03:17:21;;;;;;;5.57;3.78;;;;;;;8.33;100.00;98598.09;5047205;28;20025;-72
2022/11/05 03:20:37;;;;;;;8.95;4.95;;;;;;;8.44;100.00;98605.72;5032789;28;20033;-72
2022/11/05 03:23:06;;;;;;;7.63;4.30;;;;;;;8.47;100.00;98609.91;5030032;28;20043;-72
2022/11/05 03:25:35;;;;;;;5.82;4.03;;;;;;;8.23;100.00;98576.91;5051468;28;20108;-72
2022/11/05 03:28:05;;;;;;;5.65;4.53;;;;;;;8.43;100.00;98603.22;5058192;28;20028;-72
2022/11/05 03:30:33;;;;;;;6.72;5.13;;;;;;;8.43;100.00;98601.34;5040835;28;20060;-72
2022/11/05 03:33:05;;;;;;;6.85;4.88;;;;;;;8.49;100.00;98614.06;5047346;28;20043;-72
2022/11/05 03:35:37;;;;;;;11.50;5.20;;;;;;;8.51;100.00;98619.25;5060808;28;20026;-73
2022/11/05 03:38:09;;;;;;;7.45;4.85;;;;;;;8.54;100.00;98613.47;5044722;28;20047;-73
2022/11/05 03:40:37;;;;;;;9.02;4.65;;;;;;;8.49;100.00;98614.06;5048450;28;20479;-73
2022/11/05 03:43:06;;;;;;;9.93;5.78;;;;;;;8.50;100.00;98625.69;5070781;28;20024;-71
2022/11/05 03:45:37;;;;;;;12.25;6.03;;;;;;;8.55;100.00;98632.16;5055600;28;20029;-72
2022/11/05 03:48:05;;;;;;;14.57;6.97;;;;;;;8.59;100.00;98618.28;5044115;28;20025;-72
2022/11/05 03:50:39;;;;;;;8.60;5.45;;;;;;;8.61;100.00;98625.13;5042323;28;20056;-72
2022/11/05 03:53:17;;;;;;;9.32;5.90;;;;;;;8.58;100.00;98616.63;5048459;28;20033;-74
2022/11/05 03:56:02;;;;;;;10.88;7.00;;;;;;;8.57;100.00;98629.28;5055102;28;20402;-73
2022/11/05 03:58:29;;;;;;;10.82;7.10;;;;;;;8.54;100.00;98632.34;5049576;28;21595;-73
2022/11/05 04:00:56;;;;;;;13.32;7.60;;;;;;;8.55;100.00;98644.81;5055312;28;20487;-73
2022/11/05 04:03:21;;;;;;;13.77;7.80;;;;;;;8.57;100.00;98648.16;5056686;28;20497;-74
2022/11/05 04:13:22;;;;;;;11.95;7.63;;;;;;;8.50;100.00;98648.06;5039072;28;20025;-71
2022/11/05 04:14:07;;;;;;;13.20;8.07;;;;;;;8.55;100.00;98651.03;5054507;28;20513;-74
2022/11/05 04:24:07;;;;;;;13.60;9.32;;;;;;;8.51;100.00;98660.56;5049510;28;20479;-73
2022/11/05 04:24:46;;;;;;;15.52;8.48;;;;;;;8.47;100.00;98658.44;5043957;28;20086;-73
2022/11/05 04:27:11;;;;;;;18.75;9.65;;;;;;;8.48;100.00;98658.22;5052494;28;20025;-73
2022/11/05 04:32:20;;;;;;;15.02;9.05;;;;;;;8.48;100.00;98679.78;5055338;28;20032;-72
2022/11/05 04:34:46;;;;;;;15.18;8.95;;;;;;;8.43;100.00;98671.44;5061589;28;20025;-74
2022/11/05 04:37:11;;;;;;;12.43;8.65;;;;;;;8.47;100.00;98680.00;5048377;28;20079;-74
2022/11/05 04:39:36;;;;;;;15.20;8.57;;;;;;;8.45;100.00;98682.03;5038319;28;20025;-73
2022/11/05 04:42:01;;;;;;;13.88;8.50;;;;;;;8.38;100.00;98670.31;5044566;28;20124;-74
2022/11/05 04:44:27;;;;;;;12.88;8.90;;;;;;;8.47;100.00;98680.00;5061572;28;20070;-74
2022/11/05 04:46:52;;;;;;;15.43;8.82;;;;;;;8.44;100.00;98675.00;5050139;28;20028;-72
2022/11/05 04:49:17;;;;;;;13.30;8.73;;;;;;;8.48;100.00;98695.97;5051803;28;20056;-74
2022/11/05 04:51:43;;;;;;;17.88;8.98;;;;;;;8.59;100.00;98693.78;5045684;28;20466;-74
2022/11/05 04:54:08;;;;;;;15.77;9.43;;;;;;;8.59;100.00;98691.91;5052164;28;20037;-73
2022/11/05 04:56:33;;;;;;;16.35;9.07;;;;;;;8.55;100.00;98682.56;5052792;28;20155;-74
2022/11/05 04:58:58;;;;;;;13.45;9.32;;;;;;;8.48;100.00;98682.47;5046663;28;20178;-72
2022/11/05 05:01:24;;;;;;;18.58;8.63;;;;;;;8.45;100.00;98680.16;5038813;28;21690;-75
2022/11/05 05:03:51;;;;;;;15.98;9.30;;;;;;;8.48;100.00;98685.19;5035605;28;20021;-74
2022/11/05 05:06:17;;;;;;;16.23;8.98;;;;;;;8.52;100.00;98686.47;5046985;28;20029;-76
2022/11/05 05:08:45;;;;;;;12.85;8.50;;;;;;;8.44;100.00;98672.28;5064477;28;20026;-76
2022/11/05 05:11:12;;;;;;;15.85;9.40;;;;;;;8.58;100.00;98689.41;5059320;28;20060;-76
2022/11/05 05:13:38;;;;;;;16.58;9.00;;;;;;;8.38;100.00;98679.22;5046879;28;20546;-76
2022/11/05 05:16:06;;;;;;;14.00;9.25;;;;;;;8.49;100.00;98704.91;5060231;28;20059;-76
2022/11/05 05:18:31;;;;;;;21.48;10.25;;;;;;;8.42;100.00;98699.44;5046785;28;20036;-75
2022/11/05 05:21:40;;;;;;;14.77;9.88;;;;;;;8.43;100.00;98714.56;5045849;28;20029;-76
2022/11/05 05:23:47;;;;;;;;;;;;;;;8.38;100.00;98716.97;5037545;28;20160;-77
2022/11/05 05:26:13;;;;;;;17.77;9.73;;;;;;;8.29;100.00;98712.75;5063450;28;19913;-75
2022/11/05 05:28:38;;;;;;;20.42;10.40;;;;;;;8.30;100.00;98722.50;5053332;28;21014;-76
2022/11/05 05:31:03;;;;;;;20.10;9.77;;;;;;;8.29;100.00;98715.44;5049201;28;20051;-76
2022/11/05 05:33:29;;;;;;;18.65;11.07;;;;;;;8.23;100.00;98705.44;5044981;28;20025;-76
2022/11/05 05:35:57;;;;;;;21.52;11.70;;;;;;;8.30;100.00;98719.78;5042825;28;20478;-77
2022/11/05 05:38:23;;;;;;;17.20;10.23;;;;;;;8.40;100.00;98731.13;5043553;28;20035;-76
2022/11/05 05:40:49;;;;;;;19.88;10.00;;;;;;;8.39;100.00;98725.91;5057468;28;20027;-75
2022/11/05 05:43:15;;;;;;;19.58;10.57;;;;;;;8.33;100.00;98716.72;5042575;28;20150;-76
2022/11/05 05:45:40;;;;;;;19.90;10.73;;;;;;;8.36;100.00;98719.06;5061609;28;20052;-76
2022/11/05 05:48:06;;;;;;;19.58;10.57;;;;;;;8.41;100.00;98729.28;5047672;28;20029;-74
2022/11/05 05:50:31;;;;;;;21.45;10.98;;;;;;;8.36;100.00;98729.84;5047876;28;20028;-75
2022/11/05 05:52:57;;;;;;;18.52;10.63;;;;;;;8.34;100.00;98734.56;5049073;28;20537;-76
2022/11/05 05:55:22;;;;;;;21.20;10.40;;;;;;;8.24;100.00;98715.19;5047803;28;20510;-76
2022/11/05 05:57:47;;;;;;;20.17;11.00;;;;;;;8.28;100.00;98727.25;5048355;28;20025;-75
2022/11/05 06:00:13;;;;;;;20.33;11.02;;;;;;;8.33;100.00;98732.88;5056165;28;20035;-76
2022/11/05 06:02:38;;;;;;;21.33;11.23;;;;;;;8.24;100.00;98734.03;5061045;28;20029;-75
2022/11/05 06:05:04;;;;;;;20.10;10.80;;;;;;;8.34;100.00;98756.97;5049022;28;20025;-74
2022/11/05 06:07:29;;;;;;;18.70;10.32;;;;;;;8.30;100.00;98744.88;5053565;28;20033;-72
2022/11/05 06:09:54;;;;;;;18.10;10.43;;;;;;;8.21;100.00;98735.25;5050502;28;20079;-71
2022/11/05 06:12:20;;;;;;;19.10;10.45;;;;;;;8.30;100.00;98757.53;5060101;28;20029;-73
2022/11/05 06:14:45;;;;;;;21.42;10.65;;;;;;;8.33;100.00;98751.75;5054718;28;20024;-75
2022/11/05 06:17:10;;;;;;;18.80;10.63;;;;;;;8.31;100.00;98762.75;5059294;28;20497;-76
2022/11/05 06:19:36;;;;;;;19.23;10.75;;;;;;;8.28;100.00;98752.34;5044118;28;20025;-76
2022/11/05 06:22:01;;;;;;;21.38;10.77;;;;;;;8.38;100.00;98761.97;5066838;28;20033;-74
2022/11/05 06:24:26;;;;;;;19.60;10.60;;;;;;;8.32;100.00;98766.28;5052712;28;20021;-75
2022/11/05 06:26:52;;;;;;;16.98;10.25;;;;;;;8.30;100.00;98766.44;5053380;28;20025;-73
2022/11/05 06:29:17;;;;;;;18.05;10.25;;;;;;;8.37;100.00;98780.00;5055819;28;20060;-73
2022/11/05 06:31:42;;;;;;;23.38;12.23;;;;;;;8.34;100.00;98783.09;5054077;28;20663;-74
2022/11/05 06:34:07;;;;;;;17.70;9.85;;;;;;;8.37;100.00;98782.72;5047976;28;20074;-73
2022/11/05 06:36:33;;;;;;;14.30;9.00;;;;;;;8.37;100.00;98793.50;5067407;28;20054;-74
2022/11/05 06:38:58;;;;;;;18.50;9.50;;;;;;;8.34;100.00;98780.41;5071306;28;20047;-73
2022/11/05 06:41:23;;;;;;;16.92;9.63;;;;;;;8.37;100.00;98787.28;5055137;28;20029;-74
2022/11/05 06:43:49;;;;;;;16.55;8.57;;;;;;;8.39;100.00;98796.88;5053840;28;20617;-75
2022/11/05 06:46:14;;;;;;;14.63;9.18;;;;;;;8.41;100.00;98799.34;5042831;28;20044;-73
2022/11/05 06:48:39;;;;;;;13.60;8.48;;;;;;;8.39;100.00;98788.78;5046780;28;20040;-74
2022/11/05 06:51:06;;;;;;;17.02;8.55;;;;;;;8.48;100.00;98809.19;5053526;28;20052;-76
2022/11/05 06:53:33;;;;;;;14.52;8.27;;;;;;;8.45;100.00;98809.59;5046558;28;20459;-75
2022/11/05 06:56:06;;;;;;;17.60;8.75;;;;;;;8.51;100.00;98814.25;5069753;28;20028;-75
2022/11/05 06:58:31;;;;;;;16.25;8.77;;;;;;;8.47;100.00;98814.81;5050991;28;20025;-75
2022/11/05 07:01:08;;;;;;;14.98;8.70;;;;;;;8.49;100.00;98805.50;5048341;28;20441;-76
2022/11/05 07:03:35;;;;;;;16.25;8.75;;;;;;;8.64;100.00;98824.31;5052406;28;20016;-75
2022/11/05 07:06:02;;;;;;;15.35;9.07;;;;;;;8.60;100.00;98820.34;5052320;28;20500;-75
2022/11/05 07:08:34;;;;;;;14.75;9.20;;;;;;;8.78;100.00;98842.34;5046439;28;20075;-74
2022/11/05 07:11:00;;;;;;;15.13;8.85;;;;;;;8.87;100.00;98836.81;5052832;28;20033;-75
2022/11/05 07:13:26;;;;;;;14.57;8.75;;;;;;;8.88;100.00;98847.44;5047511;28;20075;-76
2022/11/05 07:15:51;;;;;;;14.00;8.48;;;;;;;9.07;100.00;98855.91;5044253;28;20422;-76
2022/11/05 07:18:17;;;;;;;14.00;8.90;;;;;;;9.08;100.00;98852.19;5047711;28;20028;-74
2022/11/05 07:20:42;;;;;;;15.95;8.88;;;;;;;9.14;100.00;98856.78;5040133;28;20029;-76
2022/11/05 07:23:12;;;;;;;14.05;8.18;;;;;;;9.21;100.00;98872.03;5047229;28;20378;-76
2022/11/05 07:25:39;;;;;;;16.83;9.50;;;;;;;9.11;100.00;98859.88;5048019;28;20029;-76
2022/11/05 07:28:04;;;;;;;15.07;8.90;;;;;;;9.12;100.00;98867.81;5048620;28;20028;-75
2022/11/05 07:30:31;;;;;;;17.17;9.52;;;;;;;9.05;100.00;98860.66;5049242;28;20548;-76
2022/11/05 07:32:57;;;;;;;15.43;9.10;;;;;;;9.05;100.00;98866.88;5039025;28;20029;-75
2022/11/05 07:35:22;;;;;;;16.50;9.23;;;;;;;8.94;100.00;98870.94;5043710;28;20059;-76
2022/11/05 07:37:50;;;;;;;16.33;9.05;;;;;;;8.96;100.00;98890.47;5045059;28;20028;-76
2022/11/05 07:40:18;;;;;;;19.80;9.88;;;;;;;8.94;100.00;98887.13;5046152;28;20560;-73
2022/11/05 07:42:51;;;;;;;18.13;9.82;;;;;;;8.92;100.00;98891.88;5067601;28;20048;-74
2022/11/05 07:45:17;;;;;;;19.58;10.43;;;;;;;8.86;100.00;98876.44;5055588;28;20029;-76
2022/11/05 07:47:51;;;;;;;18.30;10.00;;;;;;;9.01;100.00;98895.28;5042586;28;20494;-74
2022/11/05 07:50:19;;;;;;;21.90;9.93;;;;;;;8.91;100.00;98897.47;5052882;28;20051;-76
2022/11/05 07:52:45;;;;;;;24.52;11.18;;;;;;;8.92;100.00;98899.97;5050330;28;20025;-75
2022/11/05 07:55:12;;;;;;;16.80;9.50;;;;;;;9.03;100.00;98906.72;5044346;28;20036;-74
2022/11/05 07:57:49;;;;;;;19.42;9.57;;;;;;;9.06;100.00;98895.53;5051765;28;20071;-74
2022/11/05 08:00:20;;;;;;;21.92;10.20;;;;;;;9.18;100.00;98909.38;5042333;28;20044;-75
2022/11/05 08:03:15;;;;;;;21.10;10.32;;;;;;;9.18;100.00;98912.09;5051401;28;20032;-75
2022/11/05 08:05:46;;;;;;;18.85;10.15;;;;;;;9.18;100.00;98903.97;5047166;28;20128;-75
2022/11/05 08:08:13;;;;;;;22.27;9.88;;;;;;;9.31;100.00;98920.31;5051061;28;20043;-75
2022/11/05 08:10:40;;;;;;;17.92;9.68;;;;;;;9.14;100.00;98879.25;5048393;28;20114;-76
2022/11/05 08:13:06;;;;;;;18.73;9.85;;;;;;;9.42;100.00;98916.25;5047401;28;20489;-76
2022/11/05 08:15:32;;;;;;;17.45;9.82;;;;;;;9.35;100.00;98899.16;5052550;28;20103;-75
2022/11/05 08:17:59;;;;;;;18.45;9.70;;;;;;;9.50;100.00;98915.28;5046537;28;20017;-76
2022/11/05 08:20:25;;;;;;;16.90;10.15;;;;;;;9.56;100.00;98914.50;5053339;28;20027;-75
2022/11/05 08:22:50;;;;;;;19.33;9.13;;;;;;;9.50;100.00;98912.59;5055879;28;20029;-75
2022/11/05 08:25:16;;;;;;;15.93;9.27;;;;;;;9.51;100.00;98908.84;5053884;28;20109;-73
2022/11/05 08:27:41;;;;;;;17.80;9.82;;;;;;;9.62;100.00;98922.69;5045929;28;20052;-73
2022/11/05 08:30:07;;;;;;;14.35;8.95;;;;;;;9.54;100.00;98916.59;5046826;28;20067;-71
2022/11/05 08:32:33;;;;;;;17.77;10.15;;;;;;;9.50;100.00;98934.19;5056728;28;20029;-71
2022/11/05 08:34:59;;;;;;;20.25;10.05;;;;;;;9.56;100.00;98933.41;5034036;28;20116;-71
2022/11/05 08:37:24;;;;;;;17.33;9.25;;;;;;;9.55;100.00;98934.47;5036399;28;20063;-71
2022/11/05 08:39:49;;;;;;;17.92;9.65;;;;;;;9.64;100.00;98936.84;5042568;28;20037;-71
2022/11/05 08:42:15;;;;;;;19.30;9.55;;;;;;;9.70;100.00;98937.94;5046463;28;20491;-70
2022/11/05 08:44:40;;;;;;;16.95;9.65;;;;;;;9.82;100.00;98939.06;5054306;28;20120;-71
2022/11/05 08:47:05;;;;;;;15.90;8.93;;;;;;;9.77;100.00;98943.38;5051599;28;20024;-71
2022/11/05 08:49:30;;;;;;;21.90;10.73;;;;;;;9.63;100.00;98945.13;5059773;28;20024;-71
2022/11/05 08:51:56;;;;;;;15.82;9.65;;;;;;;9.61;100.00;98939.91;5058010;28;20020;-71
2022/11/05 08:54:21;;;;;;;18.38;9.73;;;;;;;9.52;100.00;98932.16;5042188;28;20041;-71
2022/11/05 08:56:46;;;;;;;17.52;9.15;;;;;;;9.43;100.00;98947.63;5053241;28;20024;-71
2022/11/05 08:59:12;;;;;;;18.70;9.38;;;;;;;9.36;100.00;98961.06;5048810;28;20031;-71
2022/11/05 09:01:37;;;;;;;18.20;9.30;;;;;;;9.29;100.00;98953.94;5058633;28;20028;-71
2022/11/05 09:04:03;;;;;;;18.20;9.43;;;;;;;9.26;100.00;98960.53;5054474;28;20474;-71
2022/11/05 09:06:28;;;;;;;32.22;14.68;;;;;;;9.26;100.00;98965.13;5051880;28;20168;-74
2022/11/05 09:08:54;;;;;;;16.42;9.23;;;;;;;9.26;100.00;98960.53;5047049;28;20029;-75
2022/11/05 09:11:19;;;;;;;19.95;9.38;;;;;;;9.28;100.00;98961.19;5050455;28;20025;-72
2022/11/05 09:13:44;;;;;;;13.52;7.55;;;;;;;9.24;100.00;98967.16;5054741;28;20029;-72
2022/11/05 09:16:36;;;;;;;14.30;7.47;;;;;;;9.31;100.00;98968.09;5065384;28;20383;-73
2022/11/05 09:19:05;;;;;;;14.73;7.97;;;;;;;9.16;100.00;98970.81;5043169;28;20113;-73
2022/11/05 09:21:31;;;;;;;13.02;7.15;;;;;;;9.12;100.00;98981.16;5042154;28;20021;-69
2022/11/05 09:23:56;;;;;;;12.25;7.43;;;;;;;9.28;100.00;98973.88;5049076;28;20038;-72
2022/11/05 09:26:21;;;;;;;12.98;7.30;;;;;;;9.25;100.00;98983.19;5050427;28;20025;-73
2022/11/05 09:28:47;;;;;;;17.27;7.00;;;;;;;9.38;100.00;98975.22;5051521;28;20032;-71
2022/11/05 09:31:12;;;;;;;10.52;6.43;;;;;;;9.52;100.00;98975.38;5041822;28;20037;-74
2022/11/05 09:33:39;;;;;;;10.20;6.15;;;;;;;9.72;100.00;98987.19;5045503;28;20025;-70
2022/11/05 09:36:05;;;;;;;10.77;5.80;;;;;;;9.57;100.00;98970.22;5050907;28;20029;-72
2022/11/05 09:38:33;;;;;;;11.27;5.30;;;;;;;9.70;100.00;98974.91;5041748;28;20120;-71
2022/11/05 09:41:10;;;;;;;10.55;5.35;;;;;;;9.91;100.00;98977.59;5049502;28;20059;-73
2022/11/05 09:43:50;;;;;;;10.55;5.25;;;;;;;9.80;100.00;98976.25;5039144;28;20024;-74
2022/11/05 09:46:23;;;;;;;6.03;4.15;;;;;;;9.78;100.00;98986.41;5042327;28;20112;-74
2022/11/05 09:48:54;;;;;;;9.15;5.20;;;;;;;9.62;100.00;98984.00;5047489;28;20376;-73
2022/11/05 09:51:20;;;;;;;9.93;4.78;;;;;;;9.72;100.00;98989.03;5043714;28;20040;-73
2022/11/05 09:53:46;;;;;;;8.35;4.72;;;;;;;9.51;100.00;98970.97;5085956;22;20032;-73
2022/11/05 09:56:22;;;;;;;7.15;4.00;;;;;;;9.51;100.00;98984.47;5084943;28;20036;-73
2022/11/05 09:58:59;;;;;;;7.25;4.10;;;;;;;9.50;100.00;98999.03;5080315;28;20115;-75
2022/11/05 10:01:29;;;;;;;6.35;4.15;;;;;;;9.46;100.00;99003.97;5088958;28;20024;-73
2022/11/05 10:03:59;;;;;;;8.55;4.55;;;;;;;9.46;100.00;98997.72;5083625;28;20117;-73
2022/11/05 10:06:26;;;;;;;7.07;4.28;;;;;;;9.61;100.00;99003.91;5086973;28;20024;-73
2022/11/05 10:09:06;;;;;;;13.18;6.18;;;;;;;9.33;100.00;98987.63;5086601;28;20066;-75
2022/11/05 10:11:41;;;;;;;9.27;4.70;;;;;;;9.33;100.00;98998.44;5088377;28;20102;-74
2022/11/05 10:14:15;;;;;;;8.23;5.05;;;;;;;9.39;100.00;99022.78;5083679;28;20024;-74
2022/11/05 10:16:44;;;;;;;7.43;4.45;;;;;;;9.44;100.00;99025.75;5094001;28;20492;-73
2022/11/05 10:19:23;;;;;;;7.78;4.75;;;;;;;9.51;100.00;99019.59;5079472;28;20085;-75
2022/11/05 10:21:49;;;;;;;9.33;5.10;;;;;;;9.21;100.00;99014.28;5079380;28;20032;-73
2022/11/05 10:24:18;;;;;;;11.60;5.72;;;;;;;9.42;100.00;99033.22;5083583;28;20024;-77
2022/11/05 10:26:49;;;;;;;10.68;5.45;;;;;;;9.26;100.00;99019.09;5086369;28;20035;-77
2022/11/05 10:29:24;;;;;;;8.57;5.30;;;;;;;9.28;100.00;99017.06;5081862;28;20052;-76
2022/11/05 10:31:53;;;;;;;11.20;5.55;;;;;;;9.50;100.00;99036.81;5085353;28;20038;-78
2022/11/05 10:34:20;;;;;;;10.20;5.57;;;;;;;9.29;100.00;99033.06;5084088;28;20449;-78
2022/11/05 10:36:45;;;;;;;10.52;6.10;;;;;;;8.89;100.00;98986.69;5080690;28;20032;-77
2022/11/05 10:39:18;;;;;;;10.30;6.10;;;;;;;9.18;100.00;99045.19;5086205;28;20028;-78
2022/11/05 10:42:02;;;;;;;12.20;6.80;;;;;;;9.15;100.00;99052.84;5082971;28;20539;-78
2022/11/05 10:45:04;;;;;;;12.07;6.57;;;;;;;9.11;100.00;99041.56;5081563;28;20028;-78
2022/11/05 10:47:45;;;;;;;14.63;6.95;;;;;;;9.34;100.00;99054.09;5077899;28;20034;-77
2022/11/05 10:50:12;;;;;;;12.98;6.82;;;;;;;9.38;100.00;99055.41;5079925;28;20032;-76
2022/11/05 10:53:21;;;;;;;12.95;7.15;;;;;;;9.44;100.00;99033.88;5076927;28;20035;-77
2022/11/05 10:55:49;;;;;;;11.90;6.63;;;;;;;9.44;100.00;99033.88;5085102;28;20038;-77
2022/11/05 10:58:14;;;;;;;16.27;6.55;;;;;;;9.42;100.00;99057.50;5078581;28;20512;-77
2022/11/05 11:00:44;;;;;;;10.50;5.90;;;;;;;9.27;100.00;99043.19;5081714;28;20028;-77
2022/11/05 11:03:33;;;;;;;14.30;6.65;;;;;;;9.28;100.00;99052.16;5089637;28;20032;-77
2022/11/05 11:06:00;;;;;;;18.70;8.75;;;;;;;9.20;100.00;99053.09;5076196;28;20077;-78
2022/11/05 11:08:27;;;;;;;13.38;7.28;;;;;;;9.09;100.00;99049.03;5090800;28;20028;-78
2022/11/05 11:10:56;;;;;;;13.75;6.60;;;;;;;9.26;100.00;99062.31;5078896;28;20028;-78
2022/11/05 11:13:24;;;;;;;11.10;6.45;;;;;;;9.07;100.00;99056.47;5083845;28;20024;-77
2022/11/05 11:15:50;;;;;;;11.65;7.03;;;;;;;9.15;100.00;99055.53;5086422;28;20039;-77
2022/11/05 11:18:35;;;;;;;12.63;6.22;;;;;;;9.25;100.00;99072.28;5077808;28;20028;-78
2022/11/05 11:21:12;;;;;;;11.48;6.63;;;;;;;9.19;100.00;99076.53;5080852;28;20831;-77
2022/11/05 11:23:39;;;;;;;12.27;5.97;;;;;;;9.10;100.00;99060.66;5077352;28;20498;-77
2022/11/05 11:26:05;;;;;;;15.55;7.10;;;;;;;9.04;100.00;99064.94;5085034;28;20508;-77
2022/11/05 11:28:42;;;;;;;10.77;6.07;;;;;;;9.19;100.00;99079.25;5085223;28;20035;-77
2022/11/05 11:31:12;;;;;;;13.93;6.90;;;;;;;9.28;100.00;99084.56;5087311;28;20521;-77
2022/11/05 11:33:41;;;;;;;10.98;6.63;;;;;;;9.19;100.00;99048.72;5076483;28;20028;-78
2022/11/05 11:36:09;;;;;;;14.18;7.20;;;;;;;9.60;100.00;99073.31;5079844;28;20104;-77
2022/11/05 11:38:35;;;;;;;9.88;6.32;;;;;;;9.56;100.00;99060.38;5081730;28;20085;-77
2022/11/05 11:41:10;;;;;;;11.13;6.28;;;;;;;9.87;100.00;99071.72;5078831;28;20020;-78
2022/11/05 11:43:38;;;;;;;10.77;6.25;;;;;;;9.92;100.00;99048.69;5089010;28;20423;-77
2022/11/05 11:46:04;;;;;;;12.38;6.30;;;;;;;10.43;100.00;99067.50;5087884;28;20045;-77
2022/11/05 11:48:33;;;;;;;12.23;6.65;;;;;;;10.79;100.00;99047.53;5084581;28;20019;-78
2022/11/05 11:51:15;;;;;;;12.77;7.18;;;;;;;11.09;100.00;99050.84;5084356;28;20031;-78
2022/11/05 11:53:40;;;;;;;13.18;6.93;;;;;;;10.92;100.00;99023.25;5086186;28;20059;-78
2022/11/05 11:56:16;;;;;;;10.88;6.28;;;;;;;11.14;100.00;99070.88;5083568;28;20071;-79
2022/11/05 11:58:50;;;;;;;11.30;6.55;;;;;;;10.91;100.00;99045.97;5080389;28;20024;-79
2022/11/05 12:01:46;;;;;;;13.57;7.18;;;;;;;11.00;100.00;99076.41;5089938;28;20038;-79
2022/11/05 12:04:33;;;;;;;15.35;8.10;;;;;;;10.88;100.00;99068.03;5083669;28;20067;-79
2022/11/05 12:07:20;;;;;;;14.15;6.97;;;;;;;11.48;100.00;99041.22;5085669;28;20031;-78
2022/11/05 12:09:48;;;;;;;12.05;6.25;;;;;;;12.95;100.00;99051.13;5082310;28;20043;-79
2022/11/05 12:12:15;;;;;;;8.13;4.53;;;;;;;14.37;100.00;99038.25;5085591;28;20031;-79
2022/11/05 12:14:50;;;;;;;9.25;5.18;;;;;;;14.24;100.00;99035.66;5082869;28;20103;-80
2022/11/05 12:17:39;;;;;;;8.13;5.53;;;;;;;13.61;100.00;99041.91;5083721;28;20086;-81